sensor_id;sensor_type;location;lat;lon;timestamp;pressure;altitude;pressure_sealevel;temperature;humidity
6833;BME280;3454;42.654;23.378;2022-12-19T00:00:20;96162.25;;;0.59;100.00
6833;BME280;3454;42.654;23.378;2022-12-19T00:02:46;96184.38;;;0.39;100.00
6833;BME280;3454;42.654;23.378;2022-12-19T00:05:11;96163.69;;;0.32;100.00
6833;BME280;3454;42.654;23.378;2022-12-19T00:07:38;96181.78;;;0.43;100.00
6833;BME280;3454;42.654;23.378;2022-12-19T00:10:04;96185.22;;;0.39;100.00
6833;BME280;3454;42.654;23.378;2022-12-19T00:12:30;96185.97;;;0.43;100.00
6833;BME280;3454;42.654;23.378;2022-12-19T00:14:58;96189.31;;;0.42;100.00
6833;BME280;3454;42.654;23.378;2022-12-19T00:17:23;96177.66;;;0.41;100.00
6833;BME280;3454;42.654;23.378;2022-12-19T00:19:49;96175.78;;;0.52;100.00
6833;BME280;3454;42.654;23.378;2022-12-19T00:22:17;96180.03;;;0.48;100.00
6833;BME280;3454;42.654;23.378;2022-12-19T00:24:42;96191.50;;;0.57;100.00
6833;BME280;3454;42.654;23.378;2022-12-19T00:27:08;96173.19;;;0.56;100.00
6833;BME280;3454;42.654;23.378;2022-12-19T00:29:33;96194.06;;;0.54;100.00
6833;BME280;3454;42.654;23.378;2022-12-19T00:31:58;96201.50;;;0.58;100.00
6833;BME280;3454;42.654;23.378;2022-12-19T00:34:24;96194.78;;;0.59;100.00
6833;BME280;3454;42.654;23.378;2022-12-19T00:36:49;96188.72;;;0.70;100.00
6833;BME280;3454;42.654;23.378;2022-12-19T00:39:15;96208.75;;;0.69;100.00
6833;BME280;3454;42.654;23.378;2022-12-19T00:41:40;96214.28;;;0.83;100.00
6833;BME280;3454;42.654;23.378;2022-12-19T00:44:08;96224.19;;;0.88;100.00
6833;BME280;3454;42.654;23.378;2022-12-19T00:46:35;96206.56;;;0.92;100.00
6833;BME280;3454;42.654;23.378;2022-12-19T00:49:01;96227.44;;;0.93;100.00
6833;BME280;3454;42.654;23.378;2022-12-19T00:51:28;96235.94;;;0.84;100.00
6833;BME280;3454;42.654;23.378;2022-12-19T00:53:55;96221.66;;;0.89;100.00
6833;BME280;3454;42.654;23.378;2022-12-19T00:56:23;96215.00;;;0.88;100.00
6833;BME280;3454;42.654;23.378;2022-12-19T00:58:49;96211.81;;;0.81;100.00
6833;BME280;3454;42.654;23.378;2022-12-19T01:01:17;96199.53;;;0.71;100.00
6833;BME280;3454;42.654;23.378;2022-12-19T01:03:43;96192.09;;;0.68;100.00
6833;BME280;3454;42.654;23.378;2022-12-19T01:06:09;96216.03;;;0.79;100.00
6833;BME280;3454;42.654;23.378;2022-12-19T01:08:35;96211.09;;;0.76;100.00
6833;BME280;3454;42.654;23.378;2022-12-19T01:11:00;96205.25;;;0.76;100.00
6833;BME280;3454;42.654;23.378;2022-12-19T01:13:29;96209.25;;;0.84;100.00
6833;BME280;3454;42.654;23.378;2022-12-19T01:15:54;96223.09;;;0.99;100.00
6833;BME280;3454;42.654;23.378;2022-12-19T01:18:21;96224.09;;;0.92;100.00
6833;BME280;3454;42.654;23.378;2022-12-19T01:20:47;96221.03;;;0.79;100.00
6833;BME280;3454;42.654;23.378;2022-12-19T01:23:14;96194.72;;;0.62;100.00
6833;BME280;3454;42.654;23.378;2022-12-19T01:25:40;96199.75;;;0.62;100.00
6833;BME280;3454;42.654;23.378;2022-12-19T01:28:06;96192.94;;;0.67;100.00
6833;BME280;3454;42.654;23.378;2022-12-19T01:30:32;96190.38;;;0.70;100.00
6833;BME280;3454;42.654;23.378;2022-12-19T01:32:58;96208.69;;;0.72;100.00
6833;BME280;3454;42.654;23.378;2022-12-19T01:35:24;96209.44;;;0.75;100.00
6833;BME280;3454;42.654;23.378;2022-12-19T01:37:51;96197.81;;;0.74;100.00
6833;BME280;3454;42.654;23.378;2022-12-19T01:40:17;96200.31;;;0.74;100.00
6833;BME280;3454;42.654;23.378;2022-12-19T01:42:43;96186.81;;;0.80;100.00
6833;BME280;3454;42.654;23.378;2022-12-19T01:50:18;96195.88;;;0.85;100.00
6833;BME280;3454;42.654;23.378;2022-12-19T01:52:45;96181.13;;;0.73;100.00
6833;BME280;3454;42.654;23.378;2022-12-19T01:55:12;96197.66;;;0.80;100.00
6833;BME280;3454;42.654;23.378;2022-12-19T01:57:38;96176.38;;;0.61;100.00
6833;BME280;3454;42.654;23.378;2022-12-19T02:00:05;96152.03;;;0.69;100.00
6833;BME280;3454;42.654;23.378;2022-12-19T02:02:41;96165.63;;;0.58;100.00
6833;BME280;3454;42.654;23.378;2022-12-19T02:05:08;96165.22;;;0.76;100.00
6833;BME280;3454;42.654;23.378;2022-12-19T02:07:34;96182.56;;;0.83;100.00
6833;BME280;3454;42.654;23.378;2022-12-19T02:10:00;96177.38;;;0.93;100.00
6833;BME280;3454;42.654;23.378;2022-12-19T02:12:29;96194.91;;;0.91;100.00
6833;BME280;3454;42.654;23.378;2022-12-19T02:14:57;96190.47;;;0.65;100.00
6833;BME280;3454;42.654;23.378;2022-12-19T02:31:30;96177.97;;;0.65;100.00
6833;BME280;3454;42.654;23.378;2022-12-19T02:39:15;96218.69;;;0.72;100.00
6833;BME280;3454;42.654;23.378;2022-12-19T02:42:10;96215.97;;;0.82;100.00
6833;BME280;3454;42.654;23.378;2022-12-19T02:44:41;96233.22;;;0.93;100.00
6833;BME280;3454;42.654;23.378;2022-12-19T02:47:09;96240.59;;;1.01;100.00
6833;BME280;3454;42.654;23.378;2022-12-19T02:49:37;96228.72;;;0.72;100.00
6833;BME280;3454;42.654;23.378;2022-12-19T02:54:55;96194.38;;;0.78;100.00
6833;BME280;3454;42.654;23.378;2022-12-19T03:00:06;96215.63;;;0.98;100.00
6833;BME280;3454;42.654;23.378;2022-12-19T03:02:59;96220.06;;;0.87;100.00
6833;BME280;3454;42.654;23.378;2022-12-19T03:08:22;96187.47;;;0.88;100.00
6833;BME280;3454;42.654;23.378;2022-12-19T03:11:02;96215.84;;;0.89;100.00
6833;BME280;3454;42.654;23.378;2022-12-19T03:13:44;96217.13;;;1.05;100.00
6833;BME280;3454;42.654;23.378;2022-12-19T03:16:10;96232.50;;;0.90;100.00
6833;BME280;3454;42.654;23.378;2022-12-19T03:18:37;96206.16;;;1.10;100.00
6833;BME280;3454;42.654;23.378;2022-12-19T03:23:28;96181.53;;;0.92;100.00
6833;BME280;3454;42.654;23.378;2022-12-19T03:25:57;96210.97;;;0.82;100.00
6833;BME280;3454;42.654;23.378;2022-12-19T03:28:56;96201.00;;;0.79;100.00
6833;BME280;3454;42.654;23.378;2022-12-19T03:31:28;96199.28;;;0.81;100.00
6833;BME280;3454;42.654;23.378;2022-12-19T03:33:58;96201.09;;;0.76;100.00
6833;BME280;3454;42.654;23.378;2022-12-19T03:36:27;96219.22;;;0.86;100.00
6833;BME280;3454;42.654;23.378;2022-12-19T03:38:55;96219.53;;;0.71;100.00
6833;BME280;3454;42.654;23.378;2022-12-19T03:41:22;96207.13;;;0.68;100.00
6833;BME280;3454;42.654;23.378;2022-12-19T03:44:10;96204.66;;;0.66;100.00
6833;BME280;3454;42.654;23.378;2022-12-19T03:46:40;96202.19;;;0.63;100.00
6833;BME280;3454;42.654;23.378;2022-12-19T03:49:08;96186.88;;;0.77;100.00
6833;BME280;3454;42.654;23.378;2022-12-19T03:59:35;96220.59;;;0.61;100.00
6833;BME280;3454;42.654;23.378;2022-12-19T04:02:04;96213.88;;;0.64;100.00
6833;BME280;3454;42.654;23.378;2022-12-19T04:04:30;96217.31;;;0.59;100.00
6833;BME280;3454;42.654;23.378;2022-12-19T04:07:00;96228.06;;;0.64;100.00
6833;BME280;3454;42.654;23.378;2022-12-19T04:09:27;96244.81;;;0.60;100.00
6833;BME280;3454;42.654;23.378;2022-12-19T04:12:00;96252.53;;;0.50;100.00
6833;BME280;3454;42.654;23.378;2022-12-19T04:14:30;96248.72;;;0.72;100.00
6833;BME280;3454;42.654;23.378;2022-12-19T04:19:41;96270.31;;;0.76;100.00
6833;BME280;3454;42.654;23.378;2022-12-19T04:22:30;96296.44;;;0.63;100.00
6833;BME280;3454;42.654;23.378;2022-12-19T04:24:58;96263.50;;;0.43;100.00
6833;BME280;3454;42.654;23.378;2022-12-19T04:27:24;96255.31;;;0.36;100.00
6833;BME280;3454;42.654;23.378;2022-12-19T04:29:54;96259.41;;;0.39;100.00
6833;BME280;3454;42.654;23.378;2022-12-19T04:32:22;96275.31;;;0.35;100.00
6833;BME280;3454;42.654;23.378;2022-12-19T04:34:49;96250.94;;;0.46;100.00
6833;BME280;3454;42.654;23.378;2022-12-19T04:37:14;96264.56;;;0.31;100.00
6833;BME280;3454;42.654;23.378;2022-12-19T04:39:39;96244.47;;;0.36;100.00
6833;BME280;3454;42.654;23.378;2022-12-19T04:42:05;96241.56;;;0.55;100.00
6833;BME280;3454;42.654;23.378;2022-12-19T04:44:31;96251.94;;;0.37;100.00
6833;BME280;3454;42.654;23.378;2022-12-19T04:46:56;96241.63;;;0.11;100.00
6833;BME280;3454;42.654;23.378;2022-12-19T04:49:21;96238.84;;;0.25;100.00
6833;BME280;3454;42.654;23.378;2022-12-19T04:51:47;96259.63;;;0.27;100.00
6833;BME280;3454;42.654;23.378;2022-12-19T04:54:13;96233.97;;;0.20;100.00
6833;BME280;3454;42.654;23.378;2022-12-19T04:56:38;96248.72;;;0.31;100.00
6833;BME280;3454;42.654;23.378;2022-12-19T04:59:03;96266.22;;;0.31;100.00
6833;BME280;3454;42.654;23.378;2022-12-19T05:01:29;96265.53;;;0.24;100.00
6833;BME280;3454;42.654;23.378;2022-12-19T05:03:54;96234.75;;;0.21;100.00
6833;BME280;3454;42.654;23.378;2022-12-19T05:06:20;96251.56;;;0.14;100.00
6833;BME280;3454;42.654;23.378;2022-12-19T05:08:45;96242.44;;;0.12;100.00
6833;BME280;3454;42.654;23.378;2022-12-19T05:11:13;96253.91;;;0.22;100.00
6833;BME280;3454;42.654;23.378;2022-12-19T05:13:39;96252.25;;;0.21;100.00
6833;BME280;3454;42.654;23.378;2022-12-19T05:16:07;96250.31;;;0.35;100.00
6833;BME280;3454;42.654;23.378;2022-12-19T05:18:36;96248.00;;;0.26;100.00
6833;BME280;3454;42.654;23.378;2022-12-19T05:21:01;96259.75;;;0.21;100.00
6833;BME280;3454;42.654;23.378;2022-12-19T05:23:27;96264.63;;;0.28;100.00
6833;BME280;3454;42.654;23.378;2022-12-19T05:26:00;96254.75;;;0.21;100.00
6833;BME280;3454;42.654;23.378;2022-12-19T05:28:26;96262.91;;;0.32;100.00
6833;BME280;3454;42.654;23.378;2022-12-19T05:31:10;96280.50;;;0.67;100.00
6833;BME280;3454;42.654;23.378;2022-12-19T05:33:37;96289.28;;;0.45;100.00
6833;BME280;3454;42.654;23.378;2022-12-19T05:36:02;96273.81;;;0.28;100.00
6833;BME280;3454;42.654;23.378;2022-12-19T05:38:28;96264.94;;;0.12;100.00
6833;BME280;3454;42.654;23.378;2022-12-19T05:40:54;96260.59;;;0.21;100.00
6833;BME280;3454;42.654;23.378;2022-12-19T05:43:20;96264.78;;;0.19;100.00
6833;BME280;3454;42.654;23.378;2022-12-19T05:45:45;96257.13;;;0.28;100.00
6833;BME280;3454;42.654;23.378;2022-12-19T05:48:10;96283.25;;;0.55;100.00
6833;BME280;3454;42.654;23.378;2022-12-19T05:50:36;96299.69;;;0.68;100.00
6833;BME280;3454;42.654;23.378;2022-12-19T05:53:01;96300.81;;;0.53;100.00
6833;BME280;3454;42.654;23.378;2022-12-19T05:55:27;96290.53;;;0.67;100.00
6833;BME280;3454;42.654;23.378;2022-12-19T05:57:52;96315.13;;;0.88;100.00
6833;BME280;3454;42.654;23.378;2022-12-19T06:00:18;96328.41;;;1.31;100.00
6833;BME280;3454;42.654;23.378;2022-12-19T06:02:46;96382.28;;;1.49;100.00
6833;BME280;3454;42.654;23.378;2022-12-19T06:05:12;96363.84;;;1.12;100.00
6833;BME280;3454;42.654;23.378;2022-12-19T06:07:37;96339.66;;;1.12;100.00
6833;BME280;3454;42.654;23.378;2022-12-19T06:10:03;96244.31;;;2.50;100.00
6833;BME280;3454;42.654;23.378;2022-12-19T06:12:29;96272.13;;;3.01;100.00
6833;BME280;3454;42.654;23.378;2022-12-19T06:14:55;96351.44;;;2.48;100.00
6833;BME280;3454;42.654;23.378;2022-12-19T06:17:26;96438.31;;;2.18;100.00
6833;BME280;3454;42.654;23.378;2022-12-19T06:19:51;96445.53;;;2.32;100.00
6833;BME280;3454;42.654;23.378;2022-12-19T06:22:17;96424.97;;;2.18;100.00
6833;BME280;3454;42.654;23.378;2022-12-19T06:24:42;96426.84;;;2.08;100.00
6833;BME280;3454;42.654;23.378;2022-12-19T06:27:08;96461.88;;;2.13;100.00
6833;BME280;3454;42.654;23.378;2022-12-19T06:29:33;96474.28;;;2.19;100.00
6833;BME280;3454;42.654;23.378;2022-12-19T06:31:58;96500.59;;;2.38;100.00
6833;BME280;3454;42.654;23.378;2022-12-19T06:34:24;96471.53;;;2.29;100.00
6833;BME280;3454;42.654;23.378;2022-12-19T06:36:49;96514.88;;;2.34;100.00
6833;BME280;3454;42.654;23.378;2022-12-19T06:39:15;96505.91;;;2.24;100.00
6833;BME280;3454;42.654;23.378;2022-12-19T06:41:41;96483.66;;;2.11;100.00
6833;BME280;3454;42.654;23.378;2022-12-19T06:44:25;96459.22;;;2.19;100.00
6833;BME280;3454;42.654;23.378;2022-12-19T06:46:51;96483.09;;;2.35;100.00
6833;BME280;3454;42.654;23.378;2022-12-19T06:49:17;96496.28;;;2.43;100.00
6833;BME280;3454;42.654;23.378;2022-12-19T06:51:43;96448.84;;;2.34;100.00
6833;BME280;3454;42.654;23.378;2022-12-19T06:54:10;96459.81;;;2.30;100.00
6833;BME280;3454;42.654;23.378;2022-12-19T06:56:36;96431.41;;;2.28;100.00
6833;BME280;3454;42.654;23.378;2022-12-19T06:59:03;96429.81;;;2.25;100.00
6833;BME280;3454;42.654;23.378;2022-12-19T07:04:15;96437.22;;;2.30;100.00
6833;BME280;3454;42.654;23.378;2022-12-19T07:06:42;96441.00;;;2.46;100.00
6833;BME280;3454;42.654;23.378;2022-12-19T07:09:08;96504.88;;;2.68;100.00
6833;BME280;3454;42.654;23.378;2022-12-19T07:11:33;96511.47;;;2.72;100.00
6833;BME280;3454;42.654;23.378;2022-12-19T07:13:58;96489.28;;;2.55;100.00
6833;BME280;3454;42.654;23.378;2022-12-19T07:16:24;96525.75;;;2.70;100.00
6833;BME280;3454;42.654;23.378;2022-12-19T07:18:51;96507.34;;;2.70;100.00
6833;BME280;3454;42.654;23.378;2022-12-19T07:21:17;96506.75;;;2.60;100.00
6833;BME280;3454;42.654;23.378;2022-12-19T07:23:42;96463.19;;;2.63;100.00
6833;BME280;3454;42.654;23.378;2022-12-19T07:26:08;96496.94;;;2.85;100.00
6833;BME280;3454;42.654;23.378;2022-12-19T07:28:34;96471.22;;;2.75;100.00
6833;BME280;3454;42.654;23.378;2022-12-19T07:31:00;96479.38;;;2.83;100.00
6833;BME280;3454;42.654;23.378;2022-12-19T07:33:26;96465.81;;;2.90;100.00
6833;BME280;3454;42.654;23.378;2022-12-19T07:35:51;96472.16;;;3.03;100.00
6833;BME280;3454;42.654;23.378;2022-12-19T07:38:17;96419.63;;;2.96;100.00
6833;BME280;3454;42.654;23.378;2022-12-19T07:40:42;96439.72;;;2.96;100.00
6833;BME280;3454;42.654;23.378;2022-12-19T07:43:08;96447.09;;;3.02;100.00
6833;BME280;3454;42.654;23.378;2022-12-19T07:45:36;96488.97;;;3.01;100.00
6833;BME280;3454;42.654;23.378;2022-12-19T07:48:03;96462.91;;;3.05;100.00
6833;BME280;3454;42.654;23.378;2022-12-19T07:50:28;96488.72;;;3.10;100.00
6833;BME280;3454;42.654;23.378;2022-12-19T07:52:54;96499.41;;;3.18;100.00
6833;BME280;3454;42.654;23.378;2022-12-19T07:55:20;96506.22;;;3.13;100.00
6833;BME280;3454;42.654;23.378;2022-12-19T07:57:45;96478.13;;;2.99;100.00
6833;BME280;3454;42.654;23.378;2022-12-19T08:00:11;96491.47;;;3.01;100.00
6833;BME280;3454;42.654;23.378;2022-12-19T08:02:36;96513.06;;;3.08;100.00
6833;BME280;3454;42.654;23.378;2022-12-19T08:05:02;96525.53;;;3.11;100.00
6833;BME280;3454;42.654;23.378;2022-12-19T08:07:28;96498.41;;;2.92;100.00
6833;BME280;3454;42.654;23.378;2022-12-19T08:09:53;96508.25;;;3.01;100.00
6833;BME280;3454;42.654;23.378;2022-12-19T08:12:20;96474.91;;;2.94;100.00
6833;BME280;3454;42.654;23.378;2022-12-19T08:14:45;96460.97;;;2.84;100.00
6833;BME280;3454;42.654;23.378;2022-12-19T08:17:11;96482.31;;;3.00;100.00
6833;BME280;3454;42.654;23.378;2022-12-19T08:19:36;96519.03;;;3.04;100.00
6833;BME280;3454;42.654;23.378;2022-12-19T08:22:01;96494.91;;;2.97;100.00
6833;BME280;3454;42.654;23.378;2022-12-19T08:24:27;96503.13;;;3.04;100.00
6833;BME280;3454;42.654;23.378;2022-12-19T08:26:52;96539.03;;;3.07;100.00
6833;BME280;3454;42.654;23.378;2022-12-19T08:29:18;96515.66;;;3.05;100.00
6833;BME280;3454;42.654;23.378;2022-12-19T08:31:43;96547.78;;;3.26;100.00
6833;BME280;3454;42.654;23.378;2022-12-19T08:34:08;96539.13;;;3.04;100.00
6833;BME280;3454;42.654;23.378;2022-12-19T08:36:34;96491.00;;;2.87;100.00
6833;BME280;3454;42.654;23.378;2022-12-19T08:38:59;96509.31;;;2.92;100.00
6833;BME280;3454;42.654;23.378;2022-12-19T08:41:24;96487.53;;;2.91;100.00
6833;BME280;3454;42.654;23.378;2022-12-19T08:43:51;96486.75;;;2.89;100.00
6833;BME280;3454;42.654;23.378;2022-12-19T08:46:18;96500.19;;;2.88;100.00
6833;BME280;3454;42.654;23.378;2022-12-19T08:48:44;96488.22;;;2.98;100.00
6833;BME280;3454;42.654;23.378;2022-12-19T08:51:11;96482.69;;;2.85;100.00
6833;BME280;3454;42.654;23.378;2022-12-19T08:53:39;96439.47;;;2.74;100.00
6833;BME280;3454;42.654;23.378;2022-12-19T08:56:19;96423.75;;;2.66;100.00
6833;BME280;3454;42.654;23.378;2022-12-19T08:58:46;96436.06;;;2.77;100.00
6833;BME280;3454;42.654;23.378;2022-12-19T09:01:16;96410.47;;;2.93;100.00
6833;BME280;3454;42.654;23.378;2022-12-19T09:03:48;96447.13;;;3.00;100.00
6833;BME280;3454;42.654;23.378;2022-12-19T09:06:14;96437.09;;;3.00;100.00
6833;BME280;3454;42.654;23.378;2022-12-19T09:08:41;96450.34;;;3.05;100.00
6833;BME280;3454;42.654;23.378;2022-12-19T09:11:09;96414.25;;;3.08;100.00
6833;BME280;3454;42.654;23.378;2022-12-19T09:13:35;96437.69;;;3.08;100.00
6833;BME280;3454;42.654;23.378;2022-12-19T09:16:21;96444.00;;;3.23;100.00
6833;BME280;3454;42.654;23.378;2022-12-19T09:18:48;96439.22;;;3.14;100.00
6833;BME280;3454;42.654;23.378;2022-12-19T09:21:15;96411.19;;;2.98;100.00
6833;BME280;3454;42.654;23.378;2022-12-19T09:23:42;96442.78;;;3.05;100.00
6833;BME280;3454;42.654;23.378;2022-12-19T09:26:10;96427.72;;;3.05;100.00
6833;BME280;3454;42.654;23.378;2022-12-19T09:28:37;96445.06;;;3.14;100.00
6833;BME280;3454;42.654;23.378;2022-12-19T09:31:06;96439.22;;;3.14;100.00
6833;BME280;3454;42.654;23.378;2022-12-19T09:33:33;96390.75;;;3.10;100.00
6833;BME280;3454;42.654;23.378;2022-12-19T09:36:00;96438.94;;;3.24;100.00
6833;BME280;3454;42.654;23.378;2022-12-19T09:38:27;96442.50;;;3.16;100.00
6833;BME280;3454;42.654;23.378;2022-12-19T09:49:13;96355.97;;;2.97;100.00
6833;BME280;3454;42.654;23.378;2022-12-19T09:52:45;96361.25;;;3.17;100.00
6833;BME280;3454;42.654;23.378;2022-12-19T09:54:53;96346.38;;;3.11;100.00
6833;BME280;3454;42.654;23.378;2022-12-19T09:57:36;96371.75;;;3.29;100.00
6833;BME280;3454;42.654;23.378;2022-12-19T10:00:16;96321.19;;;3.12;100.00
6833;BME280;3454;42.654;23.378;2022-12-19T10:05:49;96349.47;;;3.47;100.00
6833;BME280;3454;42.654;23.378;2022-12-19T10:08:32;96335.81;;;3.27;100.00
6833;BME280;3454;42.654;23.378;2022-12-19T10:11:06;96336.13;;;3.45;100.00
6833;BME280;3454;42.654;23.378;2022-12-19T10:16:28;96336.94;;;3.73;100.00
6833;BME280;3454;42.654;23.378;2022-12-19T10:19:08;96337.34;;;3.87;100.00
6833;BME280;3454;42.654;23.378;2022-12-19T10:24:39;96361.19;;;4.01;100.00
6833;BME280;3454;42.654;23.378;2022-12-19T10:30:13;96334.28;;;4.03;100.00
6833;BME280;3454;42.654;23.378;2022-12-19T10:35:32;96325.97;;;4.01;100.00
6833;BME280;3454;42.654;23.378;2022-12-19T10:38:18;96312.34;;;4.07;100.00
6833;BME280;3454;42.654;23.378;2022-12-19T10:40:53;96305.22;;;3.95;100.00
6833;BME280;3454;42.654;23.378;2022-12-19T10:43:26;96294.81;;;4.05;100.00
6833;BME280;3454;42.654;23.378;2022-12-19T10:45:58;96327.50;;;4.05;100.00
6833;BME280;3454;42.654;23.378;2022-12-19T10:48:27;96281.31;;;4.08;100.00
6833;BME280;3454;42.654;23.378;2022-12-19T10:50:52;96288.22;;;4.01;100.00
6833;BME280;3454;42.654;23.378;2022-12-19T10:53:26;96285.19;;;4.16;100.00
6833;BME280;3454;42.654;23.378;2022-12-19T10:55:53;96315.16;;;4.24;100.00
6833;BME280;3454;42.654;23.378;2022-12-19T10:58:33;96297.53;;;4.24;100.00
6833;BME280;3454;42.654;23.378;2022-12-19T11:01:13;96297.34;;;4.28;100.00
6833;BME280;3454;42.654;23.378;2022-12-19T11:03:46;96274.47;;;4.11;100.00
6833;BME280;3454;42.654;23.378;2022-12-19T11:09:29;96291.59;;;4.25;100.00
6833;BME280;3454;42.654;23.378;2022-12-19T11:12:13;96295.78;;;4.26;100.00
6833;BME280;3454;42.654;23.378;2022-12-19T11:14:42;96298.59;;;4.17;100.00
6833;BME280;3454;42.654;23.378;2022-12-19T11:19:57;96320.31;;;4.19;100.00
6833;BME280;3454;42.654;23.378;2022-12-19T11:22:30;96275.94;;;4.17;100.00
6833;BME280;3454;42.654;23.378;2022-12-19T11:24:56;96290.13;;;4.19;100.00
6833;BME280;3454;42.654;23.378;2022-12-19T11:27:44;96299.38;;;4.19;100.00
6833;BME280;3454;42.654;23.378;2022-12-19T11:32:41;96275.84;;;4.20;100.00
6833;BME280;3454;42.654;23.378;2022-12-19T11:35:23;96277.75;;;4.13;100.00
6833;BME280;3454;42.654;23.378;2022-12-19T11:37:53;96285.59;;;4.04;100.00
6833;BME280;3454;42.654;23.378;2022-12-19T11:42:53;96231.78;;;4.08;100.00
6833;BME280;3454;42.654;23.378;2022-12-19T11:47:59;96259.03;;;4.20;100.00
6833;BME280;3454;42.654;23.378;2022-12-19T11:50:28;96262.38;;;4.21;100.00
6833;BME280;3454;42.654;23.378;2022-12-19T11:53:32;96253.75;;;4.28;100.00
6833;BME280;3454;42.654;23.378;2022-12-19T11:56:05;96256.72;;;4.14;100.00
6833;BME280;3454;42.654;23.378;2022-12-19T11:58:33;96243.22;;;4.17;100.00
6833;BME280;3454;42.654;23.378;2022-12-19T12:06:19;96247.00;;;4.28;100.00
6833;BME280;3454;42.654;23.378;2022-12-19T12:11:50;96236.50;;;4.17;100.00
6833;BME280;3454;42.654;23.378;2022-12-19T12:14:21;96230.00;;;4.12;100.00
6833;BME280;3454;42.654;23.378;2022-12-19T12:22:10;96261.34;;;4.26;100.00
6833;BME280;3454;42.654;23.378;2022-12-19T12:27:41;96267.41;;;4.21;100.00
6833;BME280;3454;42.654;23.378;2022-12-19T12:30:12;96279.66;;;4.32;100.00
6833;BME280;3454;42.654;23.378;2022-12-19T12:33:35;96269.03;;;4.23;100.00
6833;BME280;3454;42.654;23.378;2022-12-19T12:35:56;96259.22;;;4.16;100.00
6833;BME280;3454;42.654;23.378;2022-12-19T12:41:30;96316.00;;;4.23;100.00
6833;BME280;3454;42.654;23.378;2022-12-19T12:44:21;96316.44;;;4.36;100.00
6833;BME280;3454;42.654;23.378;2022-12-19T12:46:54;96343.66;;;4.49;100.00
6833;BME280;3454;42.654;23.378;2022-12-19T12:49:46;96364.31;;;4.34;100.00
6833;BME280;3454;42.654;23.378;2022-12-19T12:52:17;96397.25;;;4.26;100.00
6833;BME280;3454;42.654;23.378;2022-12-19T12:54:45;96434.31;;;4.23;100.00
6833;BME280;3454;42.654;23.378;2022-12-19T12:57:37;96422.78;;;4.16;100.00
6833;BME280;3454;42.654;23.378;2022-12-19T13:00:20;96404.00;;;4.26;100.00
6833;BME280;3454;42.654;23.378;2022-12-19T13:02:51;96425.19;;;4.19;100.00
6833;BME280;3454;42.654;23.378;2022-12-19T13:07:51;96386.78;;;4.14;100.00
6833;BME280;3454;42.654;23.378;2022-12-19T13:10:28;96383.56;;;4.09;100.00
6833;BME280;3454;42.654;23.378;2022-12-19T13:13:06;96391.06;;;4.12;100.00
6833;BME280;3454;42.654;23.378;2022-12-19T13:15:36;96385.81;;;4.18;100.00
6833;BME280;3454;42.654;23.378;2022-12-19T13:23:22;96396.22;;;4.07;100.00
6833;BME280;3454;42.654;23.378;2022-12-19T13:25:57;96413.31;;;3.96;100.00
6833;BME280;3454;42.654;23.378;2022-12-19T13:36:44;96408.28;;;3.98;100.00
6833;BME280;3454;42.654;23.378;2022-12-19T13:39:40;96408.66;;;3.84;100.00
6833;BME280;3454;42.654;23.378;2022-12-19T13:44:53;96388.59;;;3.83;100.00
6833;BME280;3454;42.654;23.378;2022-12-19T13:47:21;96411.63;;;3.97;100.00
6833;BME280;3454;42.654;23.378;2022-12-19T13:49:47;96418.72;;;3.84;100.00
6833;BME280;3454;42.654;23.378;2022-12-19T13:52:14;96425.41;;;3.85;100.00
6833;BME280;3454;42.654;23.378;2022-12-19T13:54:47;96392.25;;;3.73;100.00
6833;BME280;3454;42.654;23.378;2022-12-19T13:57:21;96442.47;;;3.76;100.00
6833;BME280;3454;42.654;23.378;2022-12-19T13:59:48;96418.09;;;3.78;100.00
6833;BME280;3454;42.654;23.378;2022-12-19T14:02:25;96442.16;;;3.86;100.00
6833;BME280;3454;42.654;23.378;2022-12-19T14:04:51;96451.47;;;3.83;100.00
6833;BME280;3454;42.654;23.378;2022-12-19T14:07:34;96437.16;;;3.85;100.00
6833;BME280;3454;42.654;23.378;2022-12-19T14:10:00;96450.16;;;3.99;100.00
6833;BME280;3454;42.654;23.378;2022-12-19T14:12:28;96455.44;;;3.91;100.00
6833;BME280;3454;42.654;23.378;2022-12-19T14:15:40;96471.06;;;4.01;100.00
6833;BME280;3454;42.654;23.378;2022-12-19T14:18:19;96472.78;;;3.99;100.00
6833;BME280;3454;42.654;23.378;2022-12-19T14:20:46;96483.22;;;3.87;100.00
6833;BME280;3454;42.654;23.378;2022-12-19T14:23:12;96477.34;;;3.88;100.00
6833;BME280;3454;42.654;23.378;2022-12-19T14:25:50;96468.84;;;3.92;100.00
6833;BME280;3454;42.654;23.378;2022-12-19T14:28:19;96459.50;;;3.66;100.00
6833;BME280;3454;42.654;23.378;2022-12-19T14:30:51;96463.16;;;3.85;100.00
6833;BME280;3454;42.654;23.378;2022-12-19T14:33:22;96468.19;;;3.85;100.00
6833;BME280;3454;42.654;23.378;2022-12-19T14:35:52;96454.66;;;3.89;100.00
6833;BME280;3454;42.654;23.378;2022-12-19T14:38:21;96455.69;;;3.82;100.00
6833;BME280;3454;42.654;23.378;2022-12-19T14:40:49;96512.75;;;3.80;100.00
6833;BME280;3454;42.654;23.378;2022-12-19T14:43:22;96462.44;;;3.80;100.00
6833;BME280;3454;42.654;23.378;2022-12-19T14:48:57;96452.34;;;3.82;100.00
6833;BME280;3454;42.654;23.378;2022-12-19T14:51:39;96429.44;;;3.91;100.00
6833;BME280;3454;42.654;23.378;2022-12-19T15:04:45;96450.19;;;3.70;100.00
6833;BME280;3454;42.654;23.378;2022-12-19T15:07:24;96445.69;;;3.81;100.00
6833;BME280;3454;42.654;23.378;2022-12-19T15:12:53;96420.34;;;3.87;100.00
6833;BME280;3454;42.654;23.378;2022-12-19T15:15:55;96382.28;;;3.70;100.00
6833;BME280;3454;42.654;23.378;2022-12-19T15:21:06;96387.72;;;3.56;100.00
6833;BME280;3454;42.654;23.378;2022-12-19T15:23:33;96362.91;;;3.46;100.00
6833;BME280;3454;42.654;23.378;2022-12-19T15:26:04;96361.09;;;3.51;100.00
6833;BME280;3454;42.654;23.378;2022-12-19T15:28:37;96340.97;;;3.51;100.00
6833;BME280;3454;42.654;23.378;2022-12-19T15:31:09;96340.78;;;3.57;100.00
6833;BME280;3454;42.654;23.378;2022-12-19T15:33:37;96343.56;;;3.49;100.00
6833;BME280;3454;42.654;23.378;2022-12-19T15:36:02;96336.38;;;3.37;100.00
6833;BME280;3454;42.654;23.378;2022-12-19T15:38:28;96333.09;;;3.35;100.00
6833;BME280;3454;42.654;23.378;2022-12-19T15:40:53;96328.25;;;3.27;100.00
6833;BME280;3454;42.654;23.378;2022-12-19T15:43:20;96308.34;;;3.21;100.00
6833;BME280;3454;42.654;23.378;2022-12-19T15:45:50;96319.00;;;3.29;100.00